NCAR-RAP Real-Time Weather Data

Output produced by METARs form (22 June 2018  20:48 UTC)
found at http://weather.rap.ucar.edu/surface/
 
Conditions at: KBKV observed 22 June 2018  19:53 UTC
Temperature: 33.9°C (93°F)
Dewpoint: 22.2°C (72°F) [RH = 51%]
Pressure (altimeter): 29.96 inches Hg (1014.6 mb)
[Sea-level pressure: 1014.2 mb]
Winds: from the W (280 degrees) at 15 MPH (13 knots; 6.8 m/s)
Visibility: 10 or more miles (16+ km)
Ceiling: at least 12,000 feet AGL
Clouds: sky clear below 12,000 feet AGL
Present Weather: no significant weather observed at this time
KBKV 221953Z 28013KT 10SM CLR 34/22 A2996 RMK AO2 LTG DSNT E AND SE SLP142 T03390222

Conditions at: KBKV observed 22 June 2018  18:53 UTC
Temperature: 32.8°C (91°F)
Dewpoint: 23.3°C (74°F) [RH = 58%]
Pressure (altimeter): 29.97 inches Hg (1015.0 mb)
[Sea-level pressure: 1014.8 mb]
Winds: from the WNW (290 degrees) at 15 MPH (13 knots; 6.8 m/s)
Visibility: 9 miles (14 km)
Ceiling: at least 12,000 feet AGL
Clouds: few clouds at 3100 feet AGL
scattered clouds at 4400 feet AGL
Present Weather: no significant weather observed at this time
KBKV 221853Z 29013KT 9SM FEW031 SCT044 33/23 A2997 RMK AO2 SLP148 T03280233

Conditions at: KBKV observed 22 June 2018  17:53 UTC
Temperature: 32.8°C (91°F)
Dewpoint: 25.0°C (77°F) [RH = 64%]
Pressure (altimeter): 29.99 inches Hg (1015.7 mb)
[Sea-level pressure: 1015.4 mb]
Winds: from the W (280 degrees) at 13 MPH (11 knots; 5.7 m/s)
Visibility: 10 or more miles (16+ km)
Ceiling: at least 12,000 feet AGL
Clouds: sky clear below 12,000 feet AGL
Present Weather: no significant weather observed at this time
KBKV 221753Z 28011KT 10SM CLR 33/25 A2999 RMK AO2 RAB33E44 SLP154 P0000 60000 T03280250 10339 20250 56004

Conditions at: KBKV observed 22 June 2018  16:53 UTC
Temperature: 31.7°C (89°F)
Dewpoint: 23.3°C (74°F) [RH = 61%]
Pressure (altimeter): 29.99 inches Hg (1015.7 mb)
[Sea-level pressure: 1015.5 mb]
Winds: from the NW (310 degrees) at 21 MPH (18 knots; 9.4 m/s)
gusting to 26 MPH (23 knots; 12.0 m/s)
Visibility: 10 or more miles (16+ km)
Ceiling: at least 12,000 feet AGL
Clouds: few clouds at 2800 feet AGL
scattered clouds at 3500 feet AGL
Present Weather: no significant weather observed at this time
KBKV 221653Z 31018G23KT 10SM FEW028 SCT035 32/23 A2999 RMK AO2 SLP155 T03170233

Conditions at: KBKV observed 22 June 2018  15:53 UTC
Temperature: 31.7°C (89°F)
Dewpoint: 23.3°C (74°F) [RH = 61%]
Pressure (altimeter): 30.00 inches Hg (1016.0 mb)
[Sea-level pressure: 1015.6 mb]
Winds: from the W (270 degrees) at 10 MPH (9 knots; 4.7 m/s)
Visibility: 10 or more miles (16+ km)
Ceiling: 3300 feet AGL
Clouds: broken clouds at 3300 feet AGL
broken clouds at 5000 feet AGL
broken clouds at 6500 feet AGL
Present Weather: no significant weather observed at this time
KBKV 221553Z 27009KT 10SM BKN033 BKN050 BKN065 32/23 A3000 RMK AO2 LTG DSNT SE SLP156 T03170233

Conditions at: KBKV observed 22 June 2018  14:53 UTC
Temperature: 31.7°C (89°F)
Dewpoint: 23.3°C (74°F) [RH = 61%]
Pressure (altimeter): 30.00 inches Hg (1016.0 mb)
[Sea-level pressure: 1015.8 mb]
Winds: from the W (260 degrees) at 9 MPH (8 knots; 4.2 m/s)
Visibility: 10 or more miles (16+ km)
Ceiling: at least 12,000 feet AGL
Clouds: few clouds at 3200 feet AGL
scattered clouds at 6000 feet AGL
Present Weather: no significant weather observed at this time
KBKV 221453Z 26008KT 10SM FEW032 SCT060 32/23 A3000 RMK AO2 SLP158 T03170233 51003

Conditions at: KBKV observed 22 June 2018  13:53 UTC
Temperature: 31.1°C (88°F)
Dewpoint: 23.3°C (74°F) [RH = 63%]
Pressure (altimeter): 30.00 inches Hg (1016.0 mb)
[Sea-level pressure: 1015.6 mb]
Winds: from the WNW (290 degrees) at 9 MPH (8 knots; 4.2 m/s)
Visibility: 10 or more miles (16+ km)
Ceiling: at least 12,000 feet AGL
Clouds: few clouds at 3000 feet AGL
scattered clouds at 4400 feet AGL
Present Weather: no significant weather observed at this time
KBKV 221353Z 29008KT 10SM FEW030 SCT044 31/23 A3000 RMK AO2 LTG DSNT S SLP156 T03110233

Conditions at: KBKV observed 22 June 2018  12:53 UTC
Temperature: 29.4°C (85°F)
Dewpoint: 23.9°C (75°F) [RH = 72%]
Pressure (altimeter): 30.01 inches Hg (1016.3 mb)
[Sea-level pressure: 1015.8 mb]
Winds: from the W (260 degrees) at 6 MPH (5 knots; 2.6 m/s)
Visibility: 10 or more miles (16+ km)
Ceiling: at least 12,000 feet AGL
Clouds: sky clear below 12,000 feet AGL
Present Weather: no significant weather observed at this time
KBKV 221253Z 26005KT 10SM CLR 29/24 A3001 RMK AO2 SLP158 T02940239

Conditions at: KBKV observed 22 June 2018  11:53 UTC
Temperature: 25.0°C (77°F)
Dewpoint: 23.9°C (75°F) [RH = 94%]
Pressure (altimeter): 30.00 inches Hg (1016.0 mb)
[Sea-level pressure: 1015.5 mb]
Winds: calm
Visibility: 10 or more miles (16+ km)
Ceiling: at least 12,000 feet AGL
Clouds: sky clear below 12,000 feet AGL
Present Weather: no significant weather observed at this time
KBKV 221153Z 00000KT 10SM CLR 25/24 A3000 RMK AO2 SLP155 70046 T02500239 10250 20239 53022

Conditions at: KBKV observed 22 June 2018  10:53 UTC
Temperature: 24.4°C (76°F)
Dewpoint: 23.3°C (74°F) [RH = 94%]
Pressure (altimeter): 29.97 inches Hg (1015.0 mb)
[Sea-level pressure: 1014.6 mb]
Winds: calm
Visibility: 10 or more miles (16+ km)
Ceiling: at least 12,000 feet AGL
Clouds: sky clear below 12,000 feet AGL
Present Weather: automated observation with no human augmentation;
there may or may not be significant weather present at this time
KBKV 221053Z AUTO 00000KT 10SM CLR 24/23 A2997 RMK AO2 SLP146 T02440233

Conditions at: KBKV observed 22 June 2018  09:53 UTC
Temperature: 23.9°C (75°F)
Dewpoint: 23.3°C (74°F) [RH = 96%]
Pressure (altimeter): 29.95 inches Hg (1014.3 mb)
[Sea-level pressure: 1013.9 mb]
Winds: calm
Visibility: 9 miles (14 km)
Ceiling: at least 12,000 feet AGL
Clouds: sky clear below 12,000 feet AGL
Present Weather: automated observation with no human augmentation;
there may or may not be significant weather present at this time
KBKV 220953Z AUTO 00000KT 9SM CLR 24/23 A2995 RMK AO2 SLP139 T02390233

Conditions at: KBKV observed 22 June 2018  08:53 UTC
Temperature: 24.4°C (76°F)
Dewpoint: 23.3°C (74°F) [RH = 94%]
Pressure (altimeter): 29.93 inches Hg (1013.6 mb)
[Sea-level pressure: 1013.3 mb]
Winds: calm
Visibility: 8 miles (13 km)
Ceiling: at least 12,000 feet AGL
Clouds: sky clear below 12,000 feet AGL
Present Weather: automated observation with no human augmentation;
there may or may not be significant weather present at this time
KBKV 220853Z AUTO 00000KT 8SM CLR 24/23 A2993 RMK AO2 SLP133 T02440233 55004

Conditions at: KBKV observed 22 June 2018  07:53 UTC
Temperature: 24.4°C (76°F)
Dewpoint: 23.3°C (74°F) [RH = 94%]
Pressure (altimeter): 29.93 inches Hg (1013.6 mb)
[Sea-level pressure: 1013.2 mb]
Winds: from the S (170 degrees) at 3 MPH (3 knots; 1.6 m/s)
Visibility: 8 miles (13 km)
Ceiling: at least 12,000 feet AGL
Clouds: sky clear below 12,000 feet AGL
Present Weather: automated observation with no human augmentation;
there may or may not be significant weather present at this time
KBKV 220753Z AUTO 17003KT 8SM CLR 24/23 A2993 RMK AO2 SLP132 T02440233

Conditions at: KBKV observed 22 June 2018  06:53 UTC
Temperature: 25.0°C (77°F)
Dewpoint: 23.9°C (75°F) [RH = 94%]
Pressure (altimeter): 29.93 inches Hg (1013.6 mb)
[Sea-level pressure: 1013.3 mb]
Winds: from the S (190 degrees) at 5 MPH (4 knots; 2.1 m/s)
Visibility: 10 or more miles (16+ km)
Ceiling: at least 12,000 feet AGL
Clouds: sky clear below 12,000 feet AGL
Present Weather: automated observation with no human augmentation;
there may or may not be significant weather present at this time
KBKV 220653Z AUTO 19004KT 10SM CLR 25/24 A2993 RMK AO2 SLP133 T02500239

Conditions at: KBKV observed 22 June 2018  05:53 UTC
Temperature: 24.4°C (76°F)
Dewpoint: 23.9°C (75°F) [RH = 97%]
Pressure (altimeter): 29.94 inches Hg (1014.0 mb)
[Sea-level pressure: 1013.6 mb]
Winds: from the SSW (210 degrees) at 5 MPH (4 knots; 2.1 m/s)
Visibility: 10 or more miles (16+ km)
Ceiling: at least 12,000 feet AGL
Clouds: sky clear below 12,000 feet AGL
Present Weather: automated observation with no human augmentation;
there may or may not be significant weather present at this time
KBKV 220553Z AUTO 21004KT 10SM CLR 24/24 A2994 RMK AO2 SLP136 T02440239 10289 20244 58014

Conditions at: KBKV observed 22 June 2018  04:53 UTC
Temperature: 25.0°C (77°F)
Dewpoint: 23.9°C (75°F) [RH = 94%]
Pressure (altimeter): 29.96 inches Hg (1014.6 mb)
[Sea-level pressure: 1014.2 mb]
Winds: from the SSW (200 degrees) at 6 MPH (5 knots; 2.6 m/s)
Visibility: 10 or more miles (16+ km)
Ceiling: at least 12,000 feet AGL
Clouds: sky clear below 12,000 feet AGL
Present Weather: automated observation with no human augmentation;
there may or may not be significant weather present at this time
KBKV 220453Z AUTO 20005KT 10SM CLR 25/24 A2996 RMK AO2 SLP142 T02500239 403170244

Conditions at: KBKV observed 22 June 2018  03:53 UTC
Temperature: 25.6°C (78°F)
Dewpoint: 23.9°C (75°F) [RH = 90%]
Pressure (altimeter): 29.97 inches Hg (1015.0 mb)
[Sea-level pressure: 1014.7 mb]
Winds: calm
Visibility: 10 or more miles (16+ km)
Ceiling: at least 12,000 feet AGL
Clouds: sky clear below 12,000 feet AGL
Present Weather: automated observation with no human augmentation;
there may or may not be significant weather present at this time
KBKV 220353Z AUTO 00000KT 10SM CLR 26/24 A2997 RMK AO2 SLP147 T02560239

Conditions at: KBKV observed 22 June 2018  02:53 UTC
Temperature: 26.1°C (79°F)
Dewpoint: 24.4°C (76°F) [RH = 90%]
Pressure (altimeter): 29.98 inches Hg (1015.3 mb)
[Sea-level pressure: 1015.0 mb]
Winds: from the SSW (200 degrees) at 3 MPH (3 knots; 1.6 m/s)
Visibility: 10 or more miles (16+ km)
Ceiling: at least 12,000 feet AGL
Clouds: sky clear below 12,000 feet AGL
Present Weather: automated observation with no human augmentation;
there may or may not be significant weather present at this time
KBKV 220253Z AUTO 20003KT 10SM CLR 26/24 A2998 RMK AO2 SLP150 T02610244 51016

Conditions at: KBKV observed 22 June 2018  01:53 UTC
Temperature: 26.7°C (80°F)
Dewpoint: 24.4°C (76°F) [RH = 87%]
Pressure (altimeter): 29.97 inches Hg (1015.0 mb)
[Sea-level pressure: 1014.6 mb]
Winds: from the SSW (210 degrees) at 3 MPH (3 knots; 1.6 m/s)
Visibility: 10 or more miles (16+ km)
Ceiling: at least 12,000 feet AGL
Clouds: sky clear below 12,000 feet AGL
Present Weather: automated observation with no human augmentation;
there may or may not be significant weather present at this time
KBKV 220153Z AUTO 21003KT 10SM CLR 27/24 A2997 RMK AO2 SLP146 T02670244

Conditions at: KBKV observed 22 June 2018  00:53 UTC
Temperature: 27.8°C (82°F)
Dewpoint: 23.9°C (75°F) [RH = 79%]
Pressure (altimeter): 29.95 inches Hg (1014.3 mb)
[Sea-level pressure: 1013.8 mb]
Winds: from the SW (230 degrees) at 6 MPH (5 knots; 2.6 m/s)
Visibility: 10 or more miles (16+ km)
Ceiling: at least 12,000 feet AGL
Clouds: sky clear below 12,000 feet AGL
Present Weather: no significant weather observed at this time
KBKV 220053Z 23005KT 10SM CLR 28/24 A2995 RMK AO2 SLP138 T02780239

Conditions at: KBKV observed 21 June 2018  23:53 UTC
Temperature: 28.9°C (84°F)
Dewpoint: 23.9°C (75°F) [RH = 74%]
Pressure (altimeter): 29.93 inches Hg (1013.6 mb)
[Sea-level pressure: 1013.3 mb]
Winds: from the WSW (250 degrees) at 8 MPH (7 knots; 3.6 m/s)
Visibility: 10 or more miles (16+ km)
Ceiling: at least 12,000 feet AGL
Clouds: sky clear below 12,000 feet AGL
Present Weather: no significant weather observed at this time
KBKV 212353Z 25007KT 10SM CLR 29/24 A2993 RMK AO2 SLP133 T02890239 10317 20267 55000

Conditions at: KBKV observed 21 June 2018  22:53 UTC
Temperature: 30.6°C (87°F)
Dewpoint: 24.4°C (76°F) [RH = 70%]
Pressure (altimeter): 29.91 inches Hg (1013.0 mb)
[Sea-level pressure: 1012.5 mb]
Winds: from the W (280 degrees) at 12 MPH (10 knots; 5.2 m/s)
Visibility: 10 or more miles (16+ km)
Ceiling: at least 12,000 feet AGL
Clouds: few clouds at 2400 feet AGL
Present Weather: no significant weather observed at this time
KBKV 212253Z 28010KT 10SM FEW024 31/24 A2991 RMK AO2 SLP125 T03060244

Conditions at: KBKV observed 21 June 2018  21:53 UTC
Temperature: 31.1°C (88°F)
Dewpoint: 24.4°C (76°F) [RH = 68%]
Pressure (altimeter): 29.92 inches Hg (1013.3 mb)
[Sea-level pressure: 1012.8 mb]
Winds: from the W (260 degrees) at 13 MPH (11 knots; 5.7 m/s)
Visibility: 10 or more miles (16+ km)
Ceiling: at least 12,000 feet AGL
Clouds: scattered clouds at 2700 feet AGL
scattered clouds at 3500 feet AGL
Present Weather: no significant weather observed at this time
KBKV 212153Z 26011KT 10SM SCT027 SCT035 31/24 A2992 RMK AO2 SLP128 T03110244

Conditions at: KBKV observed 21 June 2018  20:53 UTC
Temperature: 30.6°C (87°F)
Dewpoint: 24.4°C (76°F) [RH = 70%]
Pressure (altimeter): 29.93 inches Hg (1013.6 mb)
[Sea-level pressure: 1013.4 mb]
Winds: from the NW (320 degrees) at 9 MPH (8 knots; 4.2 m/s)
gusting to 23 MPH (20 knots; 10.4 m/s)
Visibility: 10 or more miles (16+ km)
Ceiling: 5000 feet AGL
Clouds: scattered clouds at 2400 feet AGL
scattered clouds at 4100 feet AGL
broken clouds at 5000 feet AGL
Present Weather: no significant weather observed at this time
KBKV 212053Z 32008G20KT 10SM SCT024 SCT041 BKN050 31/24 A2993 RMK AO2 SLP134 T03060244 56007

Conditions at: KBKV observed 21 June 2018  20:50 UTC
Temperature: 30.0°C (86°F)
Dewpoint: 25.0°C (77°F) [RH = 75%]
Pressure (altimeter): 29.93 inches Hg (1013.6 mb)
Winds: from the W (280 degrees) at 9 MPH (8 knots; 4.2 m/s)
gusting to 23 MPH (20 knots; 10.4 m/s)
Visibility: 10 or more miles (16+ km)
Ceiling: 2400 feet AGL
Clouds: broken clouds at 2400 feet AGL
broken clouds at 4100 feet AGL
broken clouds at 5000 feet AGL
Present Weather: no significant weather observed at this time
KBKV 212050Z 28008G20KT 10SM BKN024 BKN041 BKN050 30/25 A2993 RMK AO2